createdAt,value
2022-08-03T00:04:34.096Z,93.80
2022-08-03T00:09:37.953Z,93.70
2022-08-03T00:14:42.463Z,94.20
2022-08-03T00:19:46.995Z,94.50
2022-08-03T00:24:50.375Z,94.70
2022-08-03T00:30:00.043Z,95.00
2022-08-03T00:35:08.291Z,95.50
2022-08-03T00:40:13.056Z,95.30
2022-08-03T00:45:18.001Z,95.70
2022-08-03T00:50:23.030Z,95.80
2022-08-03T00:55:26.546Z,96.10
2022-08-03T01:00:31.294Z,96.30
2022-08-03T01:05:37.783Z,96.40
2022-08-03T01:10:43.315Z,96.50
2022-08-03T01:15:53.607Z,96.90
2022-08-03T01:20:58.848Z,97.10
2022-08-03T01:26:07.378Z,97.30
2022-08-03T01:31:12.497Z,97.50
2022-08-03T01:36:17.463Z,97.70
2022-08-03T01:41:22.400Z,98.00
2022-08-03T01:46:27.588Z,98.30
2022-08-03T01:52:03.795Z,98.40
2022-08-03T01:56:55.675Z,98.60
2022-08-03T02:02:15.294Z,98.80
2022-08-03T02:07:25.607Z,98.90
2022-08-03T02:12:30.032Z,99.20
2022-08-03T02:17:38.954Z,99.40
2022-08-03T02:22:44.566Z,99.80
2022-08-03T02:27:50.229Z,99.90
2022-08-03T02:32:56.774Z,99.90
2022-08-03T02:38:02.441Z,99.90
2022-08-03T02:43:08.803Z,99.90
2022-08-03T02:48:13.567Z,99.90
2022-08-03T02:53:18.130Z,99.90
2022-08-03T02:58:22.379Z,99.90
2022-08-03T03:03:28.270Z,99.90
2022-08-03T03:08:35.572Z,99.90
2022-08-03T03:13:43.532Z,99.90
2022-08-03T03:18:48.877Z,99.90
2022-08-03T03:23:53.197Z,99.90
2022-08-03T03:28:56.601Z,99.90
2022-08-03T03:34:01.392Z,99.90
2022-08-03T03:39:15.243Z,99.90
2022-08-03T03:44:19.082Z,99.90
2022-08-03T03:49:23.706Z,99.90
2022-08-03T03:54:29.252Z,99.90
2022-08-03T03:59:33.119Z,99.90
2022-08-03T04:04:58.632Z,99.90
2022-08-03T04:10:20.683Z,99.90
2022-08-03T04:15:25.222Z,99.90
2022-08-03T04:20:31.139Z,99.90
2022-08-03T04:25:37.008Z,99.90
2022-08-03T04:30:47.524Z,99.90
2022-08-03T04:36:01.128Z,99.90
2022-08-03T04:41:06.722Z,99.90
2022-08-03T04:46:11.034Z,99.90
2022-08-03T04:51:15.912Z,99.90
2022-08-03T04:56:19.635Z,99.50
2022-08-03T05:01:23.553Z,96.00
2022-08-03T05:06:28.630Z,92.90
2022-08-03T05:11:32.171Z,88.90
2022-08-03T05:16:35.503Z,87.50
2022-08-03T05:21:51.937Z,89.50
2022-08-03T05:26:55.403Z,90.80
2022-08-03T05:31:58.508Z,91.60
2022-08-03T05:37:03.465Z,91.70
2022-08-03T05:42:06.772Z,92.10
2022-08-03T05:47:10.316Z,92.50
2022-08-03T05:52:15.735Z,93.00
2022-08-03T05:57:20.434Z,93.30
2022-08-03T06:02:25.047Z,93.40
2022-08-03T06:07:30.207Z,93.40
2022-08-03T06:12:36.480Z,93.50
2022-08-03T06:17:46.321Z,93.40
2022-08-03T06:23:00.178Z,93.20
2022-08-03T06:28:05.581Z,92.90
2022-08-03T06:33:09.147Z,92.50
2022-08-03T06:38:14.542Z,92.20
2022-08-03T06:43:18.072Z,91.90
2022-08-03T06:48:21.156Z,91.60
2022-08-03T06:53:25.748Z,90.80
2022-08-03T06:58:29.146Z,89.20
2022-08-03T07:03:32.569Z,87.40
2022-08-03T07:08:38.216Z,86.10
2022-08-03T07:13:42.316Z,85.30
2022-08-03T07:18:45.506Z,84.30
2022-08-03T07:23:50.165Z,83.20
2022-08-03T07:28:53.405Z,82.40
2022-08-03T07:33:58.430Z,81.70
2022-08-03T07:39:17.731Z,81.10
2022-08-03T07:44:21.575Z,80.40
2022-08-03T07:49:25.433Z,79.60
2022-08-03T07:54:30.566Z,78.50
2022-08-03T08:00:01.372Z,77.40
2022-08-03T08:05:02.170Z,76.60
2022-08-03T08:10:11.154Z,76.50
2022-08-03T08:15:14.598Z,76.10
2022-08-03T08:20:28.437Z,75.30
2022-08-03T08:25:35.669Z,74.60
2022-08-03T08:30:38.693Z,73.50
2022-08-03T08:35:41.861Z,72.30
2022-08-03T08:40:46.309Z,71.10
2022-08-03T08:45:50.713Z,69.60
2022-08-03T08:50:54.586Z,68.70
2022-08-03T08:56:01.344Z,66.80
2022-08-03T09:01:05.328Z,65.50
2022-08-03T09:06:08.804Z,64.20
2022-08-03T09:11:13.628Z,63.20
2022-08-03T09:16:18.473Z,62.40
2022-08-03T09:21:32.165Z,61.50
2022-08-03T09:26:38.082Z,60.40
2022-08-03T09:31:43.619Z,58.60
2022-08-03T09:36:47.987Z,58.60
2022-08-03T09:42:06.124Z,56.50
2022-08-03T09:47:10.157Z,56.40
2022-08-03T09:52:33.567Z,55.20
2022-08-03T09:57:41.312Z,55.00
2022-08-03T10:02:50.919Z,53.60
2022-08-03T10:07:54.641Z,53.90
2022-08-03T10:12:59.473Z,53.10
2022-08-03T10:18:03.445Z,53.20
2022-08-03T10:23:07.412Z,52.10
2022-08-03T10:28:14.834Z,52.10
2022-08-03T10:33:49.304Z,51.40
2022-08-03T10:38:46.176Z,51.40
2022-08-03T10:43:52.504Z,50.50
2022-08-03T10:48:57.071Z,50.40
2022-08-03T10:54:01.778Z,49.80
2022-08-03T10:59:08.778Z,50.30
2022-08-03T11:04:17.697Z,49.60
2022-08-03T11:09:21.689Z,49.10
2022-08-03T11:14:26.483Z,49.50
2022-08-03T11:19:57.832Z,48.80
2022-08-03T11:25:02.011Z,49.20
2022-08-03T11:30:08.638Z,48.30
2022-08-03T11:35:13.820Z,48.60
2022-08-03T11:40:32.060Z,46.80
2022-08-03T11:45:37.363Z,47.10
2022-08-03T11:50:40.873Z,46.80
2022-08-03T11:55:48.813Z,47.40
2022-08-03T12:00:53.551Z,46.90
2022-08-03T12:05:57.032Z,46.70
2022-08-03T12:11:01.498Z,46.10
2022-08-03T12:16:06.864Z,46.20
2022-08-03T12:21:11.670Z,44.90
2022-08-03T12:26:15.208Z,45.20
2022-08-03T12:31:20.181Z,43.80
2022-08-03T12:36:23.370Z,44.30
2022-08-03T12:41:30.980Z,44.10
2022-08-03T12:46:36.987Z,44.60
2022-08-03T12:51:57.396Z,43.90
2022-08-03T12:57:01.631Z,44.20
2022-08-03T13:02:09.601Z,43.60
2022-08-03T13:07:14.623Z,43.90
2022-08-03T13:12:20.706Z,43.60
2022-08-03T13:17:26.169Z,44.00
2022-08-03T13:22:29.734Z,43.60
2022-08-03T13:28:04.599Z,44.10
2022-08-03T13:32:58.807Z,43.40
2022-08-03T13:38:02.355Z,43.70
2022-08-03T13:43:05.915Z,43.10
2022-08-03T13:48:10.694Z,43.50
2022-08-03T13:53:14.181Z,42.90
2022-08-03T13:58:17.804Z,43.40
2022-08-03T14:03:23.426Z,42.60
2022-08-03T14:08:26.927Z,43.10
2022-08-03T14:13:30.466Z,42.60
2022-08-03T14:18:35.693Z,43.00
2022-08-03T14:23:43.483Z,42.50
2022-08-03T14:28:48.117Z,42.60
2022-08-03T14:33:52.725Z,42.00
2022-08-03T14:39:01.036Z,42.30
2022-08-03T14:44:05.127Z,41.60
2022-08-03T14:50:39.031Z,41.50
2022-08-03T14:54:33.830Z,41.60
2022-08-03T14:59:56.897Z,41.50
2022-08-03T15:05:02.251Z,41.90
2022-08-03T15:10:06.142Z,41.20
2022-08-03T15:15:10.013Z,41.60
2022-08-03T15:20:24.192Z,41.20
2022-08-03T15:26:04.087Z,41.60
2022-08-03T15:30:56.572Z,40.90
2022-08-03T15:36:01.517Z,41.30
2022-08-03T15:41:05.062Z,41.30
2022-08-03T15:46:28.774Z,41.40
2022-08-03T15:51:34.907Z,41.20
2022-08-03T15:56:37.942Z,40.90
2022-08-03T16:01:41.568Z,40.80
2022-08-03T16:06:46.452Z,40.70
2022-08-03T16:11:49.856Z,40.50
2022-08-03T16:16:54.296Z,40.50
2022-08-03T16:21:58.853Z,40.50
2022-08-03T16:27:02.979Z,40.50
2022-08-03T16:32:09.767Z,40.60
2022-08-03T16:37:37.113Z,40.40
2022-08-03T16:42:38.674Z,40.40
2022-08-03T16:47:41.874Z,40.40
2022-08-03T16:52:46.984Z,40.40
2022-08-03T16:57:58.853Z,40.20
2022-08-03T17:03:18.777Z,39.90
2022-08-03T17:08:26.712Z,39.40
2022-08-03T17:13:39.093Z,39.20
2022-08-03T17:18:48.317Z,38.80
2022-08-03T17:23:56.330Z,38.50
2022-08-03T17:29:11.355Z,38.40
2022-08-03T17:34:17.154Z,38.70
2022-08-03T17:39:41.661Z,38.60
2022-08-03T17:44:47.090Z,38.50
2022-08-03T17:49:51.000Z,38.40
2022-08-03T17:55:57.715Z,38.40
2022-08-03T18:00:42.779Z,38.30
2022-08-03T18:06:11.195Z,38.30
2022-08-03T18:11:15.300Z,38.20
2022-08-03T18:16:22.848Z,38.50
2022-08-03T18:21:28.366Z,38.60
2022-08-03T18:26:53.862Z,38.70
2022-08-03T18:32:02.775Z,38.90
2022-08-03T18:37:08.221Z,39.10
2022-08-03T18:42:19.355Z,39.50
2022-08-03T18:52:30.707Z,40.20
2022-08-03T18:57:40.757Z,41.20
2022-08-03T19:02:57.111Z,41.70
2022-08-03T19:08:06.054Z,42.20
2022-08-03T19:13:30.806Z,42.60
2022-08-03T19:18:35.341Z,42.90
2022-08-03T19:23:38.576Z,43.40
2022-08-03T19:28:46.404Z,44.00
2022-08-03T19:33:58.302Z,44.50
2022-08-03T19:39:03.534Z,44.80
2022-08-03T19:44:19.784Z,45.10
2022-08-03T19:50:04.785Z,45.50
2022-08-03T19:54:53.137Z,45.80
2022-08-03T19:59:58.766Z,46.20
2022-08-03T20:05:14.954Z,46.50
2022-08-03T20:10:31.851Z,46.50
2022-08-03T20:15:41.403Z,46.60
2022-08-03T20:20:46.863Z,47.10
2022-08-03T20:25:58.203Z,47.50
2022-08-03T20:31:04.180Z,47.90
2022-08-03T20:36:10.389Z,48.30
2022-08-03T20:41:14.833Z,48.60
2022-08-03T20:46:31.739Z,49.10
2022-08-03T20:51:50.426Z,49.50
2022-08-03T20:56:56.783Z,49.90
2022-08-03T21:02:01.237Z,50.20
2022-08-03T21:07:16.706Z,50.40
2022-08-03T21:12:26.950Z,50.80
2022-08-03T21:17:42.478Z,51.00
2022-08-03T21:22:47.811Z,51.20
2022-08-03T21:27:51.873Z,51.70
2022-08-03T21:32:59.008Z,51.60
2022-08-03T21:38:20.809Z,51.80
2022-08-03T21:43:33.610Z,52.30
2022-08-03T21:48:39.631Z,53.10
2022-08-03T21:54:02.558Z,53.50
2022-08-03T21:59:08.618Z,53.90
2022-08-03T22:04:50.706Z,53.20
2022-08-03T22:09:51.362Z,53.50
2022-08-03T22:15:00.282Z,53.30
2022-08-03T22:20:07.676Z,54.20
2022-08-03T22:25:15.199Z,54.40
2022-08-03T22:30:19.127Z,55.30
2022-08-03T22:35:24.458Z,55.70
2022-08-03T22:40:28.517Z,55.80
2022-08-03T22:46:07.498Z,55.80
2022-08-03T22:50:58.111Z,56.00
2022-08-03T22:56:01.731Z,56.20
2022-08-03T23:01:06.909Z,55.90
2022-08-03T23:06:11.871Z,55.90
2022-08-03T23:11:18.966Z,56.10
2022-08-03T23:16:28.954Z,56.30
2022-08-03T23:22:00.019Z,56.60
2022-08-03T23:26:58.577Z,57.10
2022-08-03T23:32:02.458Z,56.90
2022-08-03T23:37:07.214Z,57.10
2022-08-03T23:42:11.216Z,58.10
2022-08-03T23:47:14.865Z,58.60
2022-08-03T23:52:25.417Z,59.10
2022-08-03T23:57:31.077Z,59.70
